Herrold, IA

12:00 PM CST on December 09, 2016 (GMT -0600)
Biotique Systems Heartland | | Change Station

Elev 935 ft 41.70 °N, 93.76 °W | Updated 14 minutes ago

Partly Cloudy
Partly Cloudy
17.9 °F
Feels Like 18 °F
N
0.0
Wind Variable Wind from West
Gusts 4.0 mph

Today
High -- | Low -- °F
--% Chance of Precip.
Yesterday
High -- | Low -- °F
Precip. -- in
Pressure 30.60 in
Visibility 10.0 miles
Clouds Clear
Windchill 18 °F
Dew Point 12 °F
Humidity 78%
Rainfall 0.00 in
Snow Depth Not available.
7:30 AM 4:44 PM
Waxing Gibbous, 76% visible
METAR KIKV 091755Z AUTO 27006KT 10SM CLR M07/M13 A3060 RMK AO2
Pressure 30.60 in
Visibility 10.0 miles
Clouds Clear
Windchill 18 °F
Dew Point 12 °F
Humidity 78%
Rainfall 0.00 in
Snow Depth Not available.
7:30 AM 4:44 PM
Waxing Gibbous, 76% visible
METAR KIKV 091755Z AUTO 27006KT 10SM CLR M07/M13 A3060 RMK AO2

10-Day Weather Forecast

Almanac

Astronomy

Dec. 09, 2016 Rise Set
Actual Time
Civil Twilight
Nautical Twilight
Astronomical Twilight
Moon
Length of Visible Light
Length of Day
Tomorrow will be .
, % of the Moon is Illuminated

Today's Extremes

State Highs State Lows

Community

WunderPhotos

Upload Photos

1,956,499 photos uploaded!

WunderBlog® & News

Nearby

Air Quality

  Air Quality AQ Index Pollutant
Not available.

Snow Depth

Station Depth Elevation

Earthquake Activity

City Distance Mag. Time & Date
Minimum magnitude displayed is 2.5.

Coastal Water Temperatures

Place Temperature

Stations

Nearby Weather Stations

Station Location Temp. Windchill Dew Point Humidity Wind Precip. Elev Updated Type
                   

Watches & Warnings

There are currently no watches in effect.